Time;durP1;ratioP1;P1;durP2;ratioP2;P2;SDS_P1;SDS_P2;PMS_P1;PMS_P2;Temp;Humidity;BMP_temperature;BMP_pressure;BME280_temperature;BME280_humidity;BME280_pressure;Samples;Min_cycle;Max_cycle;Signal;HPM_P1;HPM_P2
2022/09/23 00:01:06;;;;;;;20.80;11.10;;;;;;;;;;5116455;27;20051;-69
2022/09/23 00:03:32;;;;;;;22.38;11.05;;;;;;;;;;5122023;27;20278;-68
2022/09/23 00:06:01;;;;;;;17.45;10.00;;;;;;;;;;5120965;27;20110;-68
2022/09/23 00:08:27;;;;;;;21.52;9.80;;;;;;;;;;5118479;27;20034;-69
2022/09/23 00:10:53;;;;;;;18.90;10.25;;;;;;;;;;5109239;27;20023;-69
2022/09/23 00:13:18;;;;;;;19.35;9.55;;;;;;;;;;5105601;27;20438;-69
2022/09/23 00:15:43;;;;;;;22.52;9.77;;;;;;;;;;5119600;27;20027;-68
2022/09/23 00:18:08;;;;;;;18.10;9.93;;;;;;;;;;5102532;27;20541;-68
2022/09/23 00:20:35;;;;;;;19.90;10.43;;;;;;;;;;5111075;27;20317;-68
2022/09/23 00:23:00;;;;;;;18.73;9.68;;;;;;;;;;5106434;27;20815;-68
2022/09/23 00:25:28;;;;;;;19.38;10.15;;;;;;;;;;5121923;27;20031;-67
2022/09/23 00:27:53;;;;;;;18.38;9.63;;;;;;;;;;5119560;27;20019;-69
2022/09/23 00:30:19;;;;;;;19.65;9.93;;;;;;;;;;5123797;27;20091;-67
2022/09/23 00:32:44;;;;;;;17.80;9.97;;;;;;;;;;5116294;27;20035;-68
2022/09/23 00:35:09;;;;;;;21.53;10.80;;;;;;;;;;5117231;27;20741;-68
2022/09/23 00:37:34;;;;;;;20.17;11.63;;;;;;;;;;5104169;27;20089;-69
2022/09/23 00:40:00;;;;;;;22.52;13.07;;;;;;;;;;5116798;27;20280;-68
2022/09/23 00:42:25;;;;;;;24.33;11.82;;;;;;;;;;5115251;27;20023;-68
2022/09/23 00:44:58;;;;;;;22.52;11.80;;;;;;;;;;5109936;27;20023;-68
2022/09/23 00:47:32;;;;;;;22.48;12.55;;;;;;;;;;5118234;27;20035;-68
2022/09/23 00:50:16;;;;;;;24.60;11.07;;;;;;;;;;5117020;27;20072;-69
2022/09/23 00:52:41;;;;;;;18.77;10.80;;;;;;;;;;5109477;27;20031;-68
2022/09/23 00:55:10;;;;;;;22.98;11.63;;;;;;;;;;5118220;27;20073;-68
2022/09/23 00:57:36;;;;;;;20.07;12.03;;;;;;;;;;5115201;27;20063;-68
2022/09/23 01:00:02;;;;;;;18.25;10.88;;;;;;;;;;5118885;27;20023;-69
2022/09/23 01:02:28;;;;;;;21.60;10.75;;;;;;;;;;5100707;28;20028;-69
2022/09/23 01:04:53;;;;;;;17.57;10.13;;;;;;;;;;5114861;27;20652;-69
2022/09/23 01:07:18;;;;;;;16.38;9.98;;;;;;;;;;5119931;27;20373;-68
2022/09/23 01:09:46;;;;;;;21.20;10.63;;;;;;;;;;5117524;27;20050;-69
2022/09/23 01:12:25;;;;;;;20.08;10.68;;;;;;;;;;5115722;27;20123;-69
2022/09/23 01:14:55;;;;;;;16.48;9.95;;;;;;;;;;5116029;27;20346;-69
2022/09/23 01:17:32;;;;;;;17.80;10.40;;;;;;;;;;5121453;27;20073;-68
2022/09/23 01:20:16;;;;;;;15.25;9.93;;;;;;;;;;5106447;27;20030;-67
2022/09/23 01:22:50;;;;;;;16.55;10.15;;;;;;;;;;5119522;27;20043;-68
2022/09/23 01:25:24;;;;;;;19.60;9.65;;;;;;;;;;5115222;27;20027;-68
2022/09/23 01:28:08;;;;;;;20.60;10.10;;;;;;;;;;5110970;27;20120;-69
2022/09/23 01:30:49;;;;;;;21.58;10.35;;;;;;;;;;5103282;27;20016;-69
2022/09/23 01:33:28;;;;;;;17.00;9.45;;;;;;;;;;5116780;27;20019;-68
2022/09/23 01:35:59;;;;;;;15.07;8.77;;;;;;;;;;5117869;27;20430;-67
2022/09/23 01:38:33;;;;;;;21.20;10.15;;;;;;;;;;5117841;27;20043;-69
2022/09/23 01:40:59;;;;;;;20.55;10.55;;;;;;;;;;5115490;27;20068;-68
2022/09/23 01:43:29;;;;;;;24.52;9.55;;;;;;;;;;5118636;27;20032;-68
2022/09/23 01:45:57;;;;;;;18.42;9.55;;;;;;;;;;5118023;27;20050;-71
2022/09/23 01:48:28;;;;;;;18.25;9.65;;;;;;;;;;5115036;27;20023;-71
2022/09/23 01:51:01;;;;;;;17.60;8.90;;;;;;;;;;5117784;27;20095;-70
2022/09/23 01:53:31;;;;;;;13.15;8.20;;;;;;;;;;5117855;27;20081;-71
2022/09/23 01:56:00;;;;;;;13.35;7.88;;;;;;;;;;5116738;27;20015;-71
2022/09/23 01:58:29;;;;;;;11.20;7.43;;;;;;;;;;5123852;27;20038;-71
2022/09/23 02:01:05;;;;;;;11.45;7.55;;;;;;;;;;5117432;27;20280;-72
2022/09/23 02:03:39;;;;;;;12.18;6.57;;;;;;;;;;5114942;27;20038;-71
2022/09/23 02:06:07;;;;;;;10.20;5.95;;;;;;;;;;5116047;27;20027;-71
2022/09/23 02:08:34;;;;;;;10.98;6.22;;;;;;;;;;5120685;27;20046;-71
2022/09/23 02:11:07;;;;;;;11.68;5.38;;;;;;;;;;5114440;27;20027;-70
2022/09/23 02:13:39;;;;;;;8.93;5.10;;;;;;;;;;5115192;27;20024;-71
2022/09/23 02:16:40;;;;;;;10.25;5.45;;;;;;;;;;5110658;27;20081;-71
2022/09/23 02:19:08;;;;;;;9.65;5.35;;;;;;;;;;5027087;28;20713;-70
2022/09/23 02:21:36;;;;;;;8.23;5.28;;;;;;;;;;5026401;28;20091;-70
2022/09/23 02:24:05;;;;;;;1999.90;716.20;;;;;;;;;;5008849;28;20831;-70
2022/09/23 02:26:34;;;;;;;1999.90;556.33;;;;;;;;;;5024310;28;20060;-71
2022/09/23 02:29:18;;;;;;;29.90;15.52;;;;;;;;;;5027250;28;20029;-70
2022/09/23 02:31:47;;;;;;;20.73;9.10;;;;;;;;;;5008465;28;20143;-71
2022/09/23 02:34:31;;;;;;;25.42;7.30;;;;;;;;;;5024192;28;20056;-70
2022/09/23 02:37:14;;;;;;;14.15;5.18;;;;;;;;;;5025844;28;20040;-71
2022/09/23 02:39:53;;;;;;;11.35;5.18;;;;;;;;;;5010334;28;20037;-70
2022/09/23 02:42:23;;;;;;;9.02;5.30;;;;;;;;;;5026487;28;20411;-70
2022/09/23 02:44:49;;;;;;;14.82;5.07;;;;;;;;;;5010191;28;20037;-70
2022/09/23 02:47:15;;;;;;;7.20;4.93;;;;;;;;;;5024490;28;20067;-70
2022/09/23 02:49:41;;;;;;;25.88;5.70;;;;;;;;;;5026491;28;20041;-70
2022/09/23 02:52:06;;;;;;;19.08;4.50;;;;;;;;;;5034982;28;20033;-70
2022/09/23 02:54:35;;;;;;;35.38;5.07;;;;;;;;;;5116488;27;20481;-70
2022/09/23 02:57:01;;;;;;;11.63;5.03;;;;;;;;;;5115718;27;20155;-70
2022/09/23 02:59:27;;;;;;;12.68;5.18;;;;;;;;;;5119191;28;20423;-70
2022/09/23 03:01:58;;;;;;;9.25;4.97;;;;;;;;;;5117727;28;20425;-70
2022/09/23 03:04:28;;;;;;;23.48;5.53;;;;;;;;;;5123783;27;20385;-70
2022/09/23 03:07:05;;;;;;;21.85;5.75;;;;;;;;;;5126716;27;20031;-70
2022/09/23 03:09:36;;;;;;;9.10;5.72;;;;;;;;;;5122782;27;20473;-70
2022/09/23 03:12:20;;;;;;;9.88;5.47;;;;;;;;;;5123545;27;20035;-70
2022/09/23 03:14:47;;;;;;;21.35;5.63;;;;;;;;;;5121595;27;20024;-70
2022/09/23 03:17:18;;;;;;;21.05;5.95;;;;;;;;;;5102550;28;20370;-70
2022/09/23 03:19:54;;;;;;;17.23;5.20;;;;;;;;;;5121208;27;20059;-70
2022/09/23 03:22:22;;;;;;;23.38;5.32;;;;;;;;;;5125737;27;20031;-70
2022/09/23 03:24:49;;;;;;;8.32;4.90;;;;;;;;;;5119671;27;20063;-70
2022/09/23 03:27:17;;;;;;;10.48;5.72;;;;;;;;;;5119789;27;20365;-70
2022/09/23 03:29:45;;;;;;;9.07;6.10;;;;;;;;;;5116668;27;20023;-70
2022/09/23 03:32:12;;;;;;;15.73;6.43;;;;;;;;;;5121759;27;20378;-70
2022/09/23 03:34:38;;;;;;;12.73;7.18;;;;;;;;;;5120571;27;20027;-70
2022/09/23 03:37:10;;;;;;;13.32;6.80;;;;;;;;;;5122373;27;20076;-70
2022/09/23 03:39:40;;;;;;;14.52;6.82;;;;;;;;;;5120437;27;20504;-71
2022/09/23 03:42:09;;;;;;;30.98;6.55;;;;;;;;;;5105836;28;20019;-71
2022/09/23 03:44:38;;;;;;;13.23;5.93;;;;;;;;;;5119242;27;20430;-70
2022/09/23 03:47:04;;;;;;;24.58;5.03;;;;;;;;;;5120261;27;20118;-71
2022/09/23 03:49:32;;;;;;;14.93;5.13;;;;;;;;;;5122143;27;20521;-71
2022/09/23 03:51:58;;;;;;;10.80;5.13;;;;;;;;;;5121628;27;20097;-71
2022/09/23 03:54:24;;;;;;;13.30;5.22;;;;;;;;;;5117596;27;20028;-71
2022/09/23 03:56:49;;;;;;;13.18;4.90;;;;;;;;;;5123626;27;20031;-70
2022/09/23 03:59:15;;;;;;;15.17;5.33;;;;;;;;;;5105052;27;20027;-71
2022/09/23 04:01:41;;;;;;;8.88;4.82;;;;;;;;;;5107682;27;20283;-70
2022/09/23 04:04:07;;;;;;;10.98;4.63;;;;;;;;;;5123316;27;20494;-71
2022/09/23 04:06:32;;;;;;;10.25;4.38;;;;;;;;;;5121647;27;20030;-70
2022/09/23 04:08:57;;;;;;;20.38;4.60;;;;;;;;;;5127097;27;20015;-71
2022/09/23 04:11:23;;;;;;;8.65;4.38;;;;;;;;;;5120803;27;20027;-71
2022/09/23 04:13:48;;;;;;;7.00;4.17;;;;;;;;;;5117772;27;20114;-70
2022/09/23 04:16:13;;;;;;;13.37;4.77;;;;;;;;;;5116401;27;20276;-70
2022/09/23 04:18:38;;;;;;;6.93;5.07;;;;;;;;;;5121631;27;20032;-70
2022/09/23 04:21:04;;;;;;;7.40;4.60;;;;;;;;;;5122747;27;20038;-71
2022/09/23 04:23:29;;;;;;;10.10;4.95;;;;;;;;;;5119271;27;20323;-71
2022/09/23 04:25:54;;;;;;;8.83;5.60;;;;;;;;;;5113506;27;20027;-72
2022/09/23 04:28:20;;;;;;;7.33;4.83;;;;;;;;;;5120642;27;21009;-71
2022/09/23 04:30:47;;;;;;;7.35;4.93;;;;;;;;;;5123155;27;20283;-72
2022/09/23 04:33:12;;;;;;;8.50;4.93;;;;;;;;;;5118075;27;20076;-71
2022/09/23 04:35:39;;;;;;;11.88;5.95;;;;;;;;;;5115523;27;20385;-70
2022/09/23 04:38:08;;;;;;;21.48;6.40;;;;;;;;;;5120890;27;20114;-70
2022/09/23 04:40:33;;;;;;;;;;;;;;;;;;5119075;27;20023;-70
2022/09/23 04:42:59;;;;;;;10.68;5.38;;;;;;;;;;5116077;27;19912;-70
2022/09/23 04:45:25;;;;;;;14.17;5.47;;;;;;;;;;5122812;27;20035;-70
2022/09/23 04:47:50;;;;;;;8.68;5.55;;;;;;;;;;5117510;27;20557;-70
2022/09/23 04:50:15;;;;;;;11.63;5.78;;;;;;;;;;5117139;27;20038;-70
2022/09/23 04:52:40;;;;;;;15.80;4.90;;;;;;;;;;5122312;27;20031;-70
2022/09/23 04:55:06;;;;;;;20.03;6.03;;;;;;;;;;5099130;27;20020;-70
2022/09/23 04:57:33;;;;;;;13.13;6.55;;;;;;;;;;5116529;27;20041;-67
2022/09/23 04:59:58;;;;;;;11.77;7.40;;;;;;;;;;5120605;27;20042;-68
2022/09/23 05:02:24;;;;;;;17.80;8.60;;;;;;;;;;5116618;27;20023;-69
2022/09/23 05:04:49;;;;;;;20.23;8.57;;;;;;;;;;5123065;27;20084;-68
2022/09/23 05:07:17;;;;;;;32.15;8.45;;;;;;;;;;5117643;27;20038;-69
2022/09/23 05:09:42;;;;;;;19.25;8.57;;;;;;;;;;5120953;27;20031;-69
2022/09/23 05:12:07;;;;;;;24.60;9.00;;;;;;;;;;5122783;27;20027;-70
2022/09/23 05:14:32;;;;;;;16.13;6.87;;;;;;;;;;5117402;27;20027;-70
2022/09/23 05:16:58;;;;;;;17.47;7.57;;;;;;;;;;5117901;27;20271;-73
2022/09/23 05:19:23;;;;;;;11.97;6.90;;;;;;;;;;5116000;27;20436;-70
2022/09/23 05:21:48;;;;;;;9.93;6.30;;;;;;;;;;5122029;27;20283;-70
2022/09/23 05:24:13;;;;;;;12.27;7.20;;;;;;;;;;5120822;27;20292;-70
2022/09/23 05:26:39;;;;;;;14.70;5.97;;;;;;;;;;5118555;27;20127;-70
2022/09/23 05:29:04;;;;;;;10.47;6.93;;;;;;;;;;5120546;27;20050;-70
2022/09/23 05:31:29;;;;;;;9.37;5.93;;;;;;;;;;5119811;27;20271;-70
2022/09/23 05:33:56;;;;;;;8.30;5.65;;;;;;;;;;5115805;27;20038;-70
2022/09/23 05:36:22;;;;;;;10.93;5.90;;;;;;;;;;5117783;27;20064;-69
2022/09/23 05:38:48;;;;;;;14.95;6.85;;;;;;;;;;5115874;27;20031;-71
2022/09/23 05:41:14;;;;;;;7.82;5.63;;;;;;;;;;5115823;27;20023;-69
2022/09/23 05:43:40;;;;;;;10.52;6.90;;;;;;;;;;5119745;27;20038;-69
2022/09/23 05:46:05;;;;;;;15.07;6.55;;;;;;;;;;5118050;27;20023;-69
2022/09/23 05:48:31;;;;;;;15.20;6.37;;;;;;;;;;5124847;27;20034;-69
2022/09/23 05:50:56;;;;;;;9.45;6.32;;;;;;;;;;5118796;27;20031;-69
2022/09/23 05:53:22;;;;;;;10.50;6.50;;;;;;;;;;5121452;27;20106;-69
2022/09/23 05:55:47;;;;;;;16.67;6.55;;;;;;;;;;5116874;27;20080;-69
2022/09/23 05:58:12;;;;;;;17.50;6.78;;;;;;;;;;5119500;27;20015;-69
2022/09/23 06:00:39;;;;;;;16.75;7.60;;;;;;;;;;5123386;27;20027;-68
2022/09/23 06:03:05;;;;;;;27.38;7.95;;;;;;;;;;5121086;27;20049;-69
2022/09/23 06:05:30;;;;;;;12.32;6.57;;;;;;;;;;5117818;27;20053;-70
2022/09/23 06:07:56;;;;;;;21.92;7.63;;;;;;;;;;5118929;27;20477;-68
2022/09/23 06:10:21;;;;;;;20.35;7.30;;;;;;;;;;5119727;27;20131;-69
2022/09/23 06:12:46;;;;;;;19.15;7.88;;;;;;;;;;5099927;27;20023;-69
2022/09/23 06:15:12;;;;;;;19.07;7.43;;;;;;;;;;5117912;27;20102;-70
2022/09/23 06:17:37;;;;;;;13.70;7.67;;;;;;;;;;5120179;27;20031;-69
2022/09/23 06:20:03;;;;;;;19.40;8.02;;;;;;;;;;5117740;27;20279;-69
2022/09/23 06:22:28;;;;;;;16.13;8.38;;;;;;;;;;5119512;27;20047;-69
2022/09/23 06:24:54;;;;;;;17.27;8.75;;;;;;;;;;5106841;27;20442;-68
2022/09/23 06:27:19;;;;;;;17.60;9.15;;;;;;;;;;5117631;27;20418;-68
2022/09/23 06:29:44;;;;;;;25.00;9.18;;;;;;;;;;5117718;27;20034;-68
2022/09/23 06:32:09;;;;;;;23.33;10.70;;;;;;;;;;5117632;27;20019;-67
2022/09/23 06:34:35;;;;;;;23.83;9.80;;;;;;;;;;5118551;27;20072;-68
2022/09/23 06:37:00;;;;;;;18.50;9.32;;;;;;;;;;5102894;27;20035;-67
2022/09/23 06:39:26;;;;;;;16.92;10.02;;;;;;;;;;5114971;27;20030;-68
2022/09/23 06:41:51;;;;;;;17.20;10.23;;;;;;;;;;5101629;27;20032;-68
2022/09/23 06:44:16;;;;;;;19.23;10.73;;;;;;;;;;5101421;28;20539;-68
2022/09/23 06:46:42;;;;;;;1362.85;809.97;;;;;;;;;;5088833;27;20031;-68
2022/09/23 06:49:08;;;;;;;254.02;175.82;;;;;;;;;;5115284;27;20045;-67
2022/09/23 06:51:33;;;;;;;153.85;99.68;;;;;;;;;;5116463;27;20024;-66
2022/09/23 06:53:59;;;;;;;71.25;42.15;;;;;;;;;;5113546;28;20378;-68
2022/09/23 06:56:24;;;;;;;30.13;18.90;;;;;;;;;;5115631;27;20035;-68
2022/09/23 06:58:50;;;;;;;32.47;16.00;;;;;;;;;;5115931;28;20485;-68
2022/09/23 07:01:16;;;;;;;31.13;15.38;;;;;;;;;;5107915;28;20828;-68
2022/09/23 07:03:42;;;;;;;262.85;71.63;;;;;;;;;;5118214;28;20034;-69
2022/09/23 07:06:07;;;;;;;44.30;19.83;;;;;;;;;;5115329;28;20532;-68
2022/09/23 07:08:33;;;;;;;29.17;15.37;;;;;;;;;;5117904;28;20019;-68
2022/09/23 07:11:00;;;;;;;28.33;15.13;;;;;;;;;;5106893;28;20057;-68
2022/09/23 07:13:25;;;;;;;30.63;16.08;;;;;;;;;;5106607;28;20035;-68
2022/09/23 07:15:51;;;;;;;31.35;16.05;;;;;;;;;;5118961;28;20123;-69
2022/09/23 07:18:17;;;;;;;30.67;15.18;;;;;;;;;;5108619;28;20766;-68
2022/09/23 07:20:42;;;;;;;29.13;15.32;;;;;;;7.17;nan;101057.28;5118595;28;20035;-68
2022/09/23 07:23:08;;;;;;;24.70;13.88;;;;;;;;;;5117493;28;20055;-68
2022/09/23 07:25:33;;;;;;;21.97;13.73;;;;;;;;;;5113819;28;20070;-68
2022/09/23 07:27:59;;;;;;;23.03;13.00;;;;;;;;;;5120413;28;20035;-68
2022/09/23 07:30:25;;;;;;;19.08;12.07;;;;;;;;;;5117010;28;20681;-69
2022/09/23 07:32:50;;;;;;;21.13;11.98;;;;;;;;;;5116514;28;20032;-68
2022/09/23 07:35:16;;;;;;;20.20;12.13;;;;;;;;;;5119807;28;20023;-68
2022/09/23 07:37:41;;;;;;;20.98;13.45;;;;;;;;;;5115007;28;20049;-69
2022/09/23 07:40:07;;;;;;;19.43;13.13;;;;;;;;;;5095784;28;20031;-67
2022/09/23 07:42:32;;;;;;;18.60;11.75;;;;;;;;;;5110796;28;20035;-68
2022/09/23 07:44:57;;;;;;;16.77;11.40;;;;;;;;;;5112694;28;20103;-68
2022/09/23 07:47:22;;;;;;;17.30;12.20;;;;;;;;;;5119056;28;20276;-69
2022/09/23 07:49:48;;;;;;;17.83;11.90;;;;;;;;;;5118796;27;20033;-68
2022/09/23 07:52:13;;;;;;;17.23;11.48;;;;;;;;;;5117646;27;20486;-68
2022/09/23 07:54:38;;;;;;;17.37;11.77;;;;;;;;;;5119164;27;20439;-69
2022/09/23 07:57:03;;;;;;;15.40;11.30;;;;;;;;;;5117788;27;20055;-68
2022/09/23 07:59:28;;;;;;;18.53;11.53;;;;;;;;;;5119218;27;20282;-68
2022/09/23 08:01:54;;;;;;;16.20;11.40;;;;;;;;;;5119125;27;20768;-68
2022/09/23 08:04:21;;;;;;;20.13;12.00;;;;;;;;;;5105019;28;20067;-68
2022/09/23 08:06:52;;;;;;;16.08;11.95;;;;;;;;;;5121811;27;20044;-67
2022/09/23 08:09:18;;;;;;;16.73;11.70;;;;;;;;;;5117278;27;20038;-69
2022/09/23 08:11:44;;;;;;;16.48;11.23;;;;;;;;;;5119694;27;20058;-69
2022/09/23 08:14:12;;;;;;;19.05;12.80;;;;;;;;;;5123096;27;20522;-70
2022/09/23 08:16:38;;;;;;;19.90;13.00;;;;;;;;;;5101644;27;20035;-73
2022/09/23 08:19:04;;;;;;;18.02;12.75;;;;;;;;;;5120024;27;20065;-73
2022/09/23 08:21:29;;;;;;;19.80;13.80;;;;;;;;;;5117170;27;20460;-73
2022/09/23 08:23:54;;;;;;;18.57;12.17;;;;;;;;;;5118245;27;20044;-72
2022/09/23 08:26:20;;;;;;;19.33;12.85;;;;;;;;;;5118669;27;20367;-73
2022/09/23 08:28:46;;;;;;;17.17;11.88;;;;;;;;;;5121076;27;20039;-73
2022/09/23 08:31:12;;;;;;;16.95;11.63;;;;;;;;;;5125260;27;20020;-73
2022/09/23 08:33:38;;;;;;;19.15;12.13;;;;;;;;;;5114845;27;20019;-69
2022/09/23 08:36:04;;;;;;;18.17;12.30;;;;;;;;;;5120570;27;20424;-70
2022/09/23 08:38:29;;;;;;;18.33;12.77;;;;;;;;;;5115924;27;20057;-70
2022/09/23 08:41:03;;;;;;;15.83;12.00;;;;;;;;;;5117453;27;20027;-69
2022/09/23 08:43:30;;;;;;;17.58;12.55;;;;;;;;;;5110764;27;20693;-69
2022/09/23 08:45:59;;;;;;;22.05;13.95;;;;;;;;;;5100988;27;20105;-69
2022/09/23 08:48:44;;;;;;;20.83;14.90;;;;;;;;;;5110994;27;20049;-70
2022/09/23 08:51:39;;;;;;;25.65;15.10;;;;;;;;;;5121873;27;20492;-71
2022/09/23 08:54:05;;;;;;;26.42;15.45;;;;;;;;;;5094436;27;20035;-73
2022/09/23 08:56:31;;;;;;;23.75;14.65;;;;;;;;;;5110661;27;20609;-74
2022/09/23 08:58:59;;;;;;;20.10;13.52;;;;;;;;;;5110146;27;20020;-73
2022/09/23 09:01:33;;;;;;;21.33;14.55;;;;;;;;;;5108033;27;20253;-74
2022/09/23 09:04:00;;;;;;;16.15;11.90;;;;;;;;;;5118675;27;20027;-73
2022/09/23 09:06:31;;;;;;;19.40;13.43;;;;;;;;;;5117340;27;20095;-73
2022/09/23 09:08:59;;;;;;;16.92;12.02;;;;;;;;;;5119686;27;20027;-73
2022/09/23 09:11:30;;;;;;;18.90;12.30;;;;;;;;;;5114605;27;20054;-73
2022/09/23 09:14:02;;;;;;;19.27;14.00;;;;;;;;;;5116417;27;20059;-70
2022/09/23 09:16:38;;;;;;;16.67;11.90;;;;;;;;;;5117479;27;20472;-74
2022/09/23 09:19:06;;;;;;;17.67;12.45;;;;;;;;;;5115574;27;20039;-73
2022/09/23 09:21:36;;;;;;;19.05;12.57;;;;;;;;;;5103058;27;20024;-73
2022/09/23 09:24:02;;;;;;;17.95;12.40;;;;;;;;;;5117198;27;20074;-69
2022/09/23 09:26:28;;;;;;;15.30;10.98;;;;;;;;;;5117787;27;20054;-69
2022/09/23 09:28:59;;;;;;;14.77;10.85;;;;;;;;;;5114919;27;20032;-74
2022/09/23 09:31:38;;;;;;;16.08;11.02;;;;;;;;;;5108948;27;20411;-74
2022/09/23 09:34:10;;;;;;;13.73;10.02;;;;;;;;;;5102250;27;20718;-72
2022/09/23 09:36:36;;;;;;;13.27;9.60;;;;;;;;;;5117248;27;20039;-72
2022/09/23 09:39:01;;;;;;;13.23;10.23;;;;;;;;;;5104803;27;20039;-74
2022/09/23 09:41:30;;;;;;;14.48;10.00;;;;;;;;;;5109589;27;20034;-74
2022/09/23 09:43:58;;;;;;;12.73;9.37;;;;;;;;;;5105394;28;20023;-74
2022/09/23 09:46:43;;;;;;;13.75;8.90;;;;;;;;;;5116007;27;20279;-73
2022/09/23 09:49:24;;;;;;;12.13;8.80;;;;;;;;;;5118985;27;20020;-73
2022/09/23 09:52:10;;;;;;;13.63;8.50;;;;;;;;;;5107311;28;20389;-72
2022/09/23 09:54:35;;;;;;;11.88;8.32;;;;;;;;;;5115832;27;20437;-73
2022/09/23 09:57:03;;;;;;;8.40;6.88;;;;;;;;;;5122540;27;20030;-73
2022/09/23 09:59:28;;;;;;;9.50;6.90;;;;;;;;;;5106368;28;20029;-73
2022/09/23 10:02:13;;;;;;;9.57;7.45;;;;;;;;;;5119580;27;20403;-71
2022/09/23 10:04:38;;;;;;;10.15;7.45;;;;;;;;;;5116521;27;20437;-71
2022/09/23 10:07:14;;;;;;;12.20;7.40;;;;;;;;;;5102867;27;20043;-69
2022/09/23 10:09:46;;;;;;;9.82;6.95;;;;;;;;;;5118980;27;20033;-75
2022/09/23 10:12:17;;;;;;;9.23;5.88;;;;;;;;;;5114956;27;20057;-74
2022/09/23 10:14:42;;;;;;;7.85;6.00;;;;;;;;;;5101419;27;20030;-68
2022/09/23 10:17:14;;;;;;;9.82;6.30;;;;;;;;;;5101095;27;20019;-74
2022/09/23 10:19:43;;;;;;;10.60;6.38;;;;;;;;;;5117039;27;20485;-69
2022/09/23 10:22:15;;;;;;;11.40;6.47;;;;;;;;;;5115305;27;20027;-74
2022/09/23 10:24:46;;;;;;;11.73;6.75;;;;;;;;;;5115565;27;20031;-75
2022/09/23 10:27:12;;;;;;;9.82;6.45;;;;;;;;;;5104224;27;20105;-69
2022/09/23 10:29:38;;;;;;;11.73;5.70;;;;;;;;;;5115072;27;20106;-71
2022/09/23 10:32:22;;;;;;;9.15;6.25;;;;;;;;;;5121538;27;20035;-71
2022/09/23 10:34:50;;;;;;;9.27;5.65;;;;;;;;;;5114878;27;20033;-73
2022/09/23 10:37:36;;;;;;;13.02;5.47;;;;;;;;;;5120503;27;20019;-72
2022/09/23 10:48:45;;;;;;;8.20;5.35;;;;;;;;;;5113891;27;20738;-74
2022/09/23 10:51:13;;;;;;;12.93;5.00;;;;;;;;;;5115781;27;20068;-73
2022/09/23 10:53:54;;;;;;;9.60;4.68;;;;;;;;;;5114719;27;20024;-73
2022/09/23 10:56:28;;;;;;;6.20;3.97;;;;;;;;;;5119832;27;20019;-71
2022/09/23 10:59:07;;;;;;;4.70;3.58;;;;;;;;;;5110811;27;20388;-72
2022/09/23 11:01:51;;;;;;;6.13;3.53;;;;;;;;;;5117368;28;20093;-72
2022/09/23 11:04:25;;;;;;;5.13;3.20;;;;;;;;;;5108131;28;20027;-73
2022/09/23 11:07:10;;;;;;;6.68;4.78;;;;;;;;;;5102876;28;20034;-72
2022/09/23 11:09:41;;;;;;;9.73;4.93;;;;;;;;;;5113965;28;20023;-75
2022/09/23 11:12:25;;;;;;;8.75;5.95;;;;;;;;;;5116797;28;20019;-75
2022/09/23 11:15:02;;;;;;;9.50;4.80;;;;;;;;;;5102996;28;20031;-74
2022/09/23 11:17:34;;;;;;;8.93;4.95;;;;;;;;;;5100297;28;20034;-72
2022/09/23 11:20:05;;;;;;;8.65;5.60;;;;;;;;;;5113748;28;20028;-72
2022/09/23 11:22:49;;;;;;;7.85;5.00;;;;;;;;;;5116950;28;20035;-73
2022/09/23 11:25:15;;;;;;;7.88;4.82;;;;;;;;;;5116522;27;20493;-72
2022/09/23 11:27:43;;;;;;;10.88;4.82;;;;;;;;;;5124730;27;20470;-72
2022/09/23 11:30:16;;;;;;;6.80;4.00;;;;;;;;;;5123331;27;20132;-72
2022/09/23 11:33:02;;;;;;;8.25;4.18;;;;;;;;;;5121166;27;20458;-71
2022/09/23 11:35:34;;;;;;;7.80;4.00;;;;;;;;;;5120234;27;20034;-72
2022/09/23 11:38:24;;;;;;;6.53;3.90;;;;;;;;;;5113551;27;20366;-72
2022/09/23 11:40:53;;;;;;;6.43;4.07;;;;;;;;;;5119611;27;20122;-74
2022/09/23 11:43:33;;;;;;;14.18;4.25;;;;;;;;;;5104074;28;20413;-73
2022/09/23 11:45:58;;;;;;;9.10;4.10;;;;;;;;;;5118070;27;20031;-73
2022/09/23 11:48:31;;;;;;;6.27;3.93;;;;;;;;;;5118329;27;20045;-73
2022/09/23 11:51:01;;;;;;;5.50;3.85;;;;;;;;;;5115848;27;20027;-73
2022/09/23 11:53:46;;;;;;;6.70;3.70;;;;;;;;;;5110984;27;20015;-72
2022/09/23 11:56:17;;;;;;;4.40;3.60;;;;;;;;;;5114869;27;20061;-73
2022/09/23 11:58:50;;;;;;;5.53;3.17;;;;;;;;;;5113569;27;20023;-73
2022/09/23 12:01:18;;;;;;;5.55;3.20;;;;;;;;;;5119757;27;20032;-73
2022/09/23 12:04:03;;;;;;;4.35;2.90;;;;;;;;;;5116729;27;20038;-73
2022/09/23 12:06:48;;;;;;;3.13;2.45;;;;;;;;;;5122559;27;20023;-71
2022/09/23 12:09:40;;;;;;;3.15;2.53;;;;;;;;;;5123063;27;20519;-73
2022/09/23 12:12:16;;;;;;;3.63;2.83;;;;;;;15.09;nan;100944.72;5105768;27;20046;-73
2022/09/23 12:14:48;;;;;;;5.00;3.10;;;;;;;;;;5115682;27;20872;-73
2022/09/23 12:17:13;;;;;;;4.32;3.03;;;;;;;;;;5119533;27;20118;-71
2022/09/23 12:19:41;;;;;;;5.07;3.80;;;;;;;;;;5124876;27;20115;-73
2022/09/23 12:22:25;;;;;;;6.45;3.58;;;;;;;;;;5104105;28;20019;-71
2022/09/23 12:24:54;;;;;;;6.60;3.50;;;;;;;;;;5118435;27;20027;-74
2022/09/23 12:27:23;;;;;;;4.80;3.70;;;;;;;;;;5116597;27;20027;-72
2022/09/23 12:29:55;;;;;;;4.60;3.60;;;;;;;;;;5116932;27;20023;-72
2022/09/23 12:32:21;;;;;;;5.70;3.40;;;;;;;;;;5119316;27;20028;-72
2022/09/23 12:34:48;;;;;;;4.90;3.20;;;;;;;;;;5116793;27;20027;-72
2022/09/23 12:37:23;;;;;;;5.03;3.40;;;;;;;;;;5109945;27;20477;-71
2022/09/23 12:39:48;;;;;;;11.70;4.75;;;;;;;;;;5119793;27;20031;-72
2022/09/23 12:42:16;;;;;;;5.18;3.88;;;;;;;;;;5115618;27;20031;-72
2022/09/23 12:44:44;;;;;;;6.75;3.55;;;;;;;15.35;nan;100912.44;5114576;27;20038;-71
2022/09/23 12:47:24;;;;;;;11.05;6.57;;;;;;;;;;5119397;27;20032;-72
2022/09/23 12:49:53;;;;;;;7.32;4.32;;;;;;;;;;5114829;27;20015;-71
2022/09/23 12:52:18;;;;;;;9.00;3.85;;;;;;;;;;5115275;27;20024;-71
2022/09/23 12:54:47;;;;;;;7.30;3.40;;;;;;;;;;5118391;27;20669;-71
2022/09/23 12:57:13;;;;;;;5.70;2.80;;;;;;;;;;5119115;27;20047;-72
2022/09/23 12:59:53;;;;;;;3.90;2.20;;;;;;;;;;5119708;27;20028;-71
2022/09/23 13:02:34;;;;;;;3.92;2.67;;;;;;;;;;5111902;27;20100;-71
2022/09/23 13:07:47;;;;;;;5.15;2.80;;;;;;;;;;5125679;27;20038;-72
2022/09/23 13:10:15;;;;;;;6.78;2.40;;;;;;;;;;5111118;27;20050;-71
2022/09/23 13:12:42;;;;;;;6.03;2.72;;;;;;;;;;5117168;27;20035;-71
2022/09/23 13:15:37;;;;;;;5.38;2.20;;;;;;;;;;5101947;27;20389;-72
2022/09/23 13:18:17;;;;;;;4.38;2.20;;;;;;;;;;5104520;27;20069;-72
2022/09/23 13:20:45;;;;;;;2.70;1.88;;;;;;;;;;5105766;27;20023;-71
2022/09/23 13:23:26;;;;;;;7.97;3.25;;;;;;;;;;5120584;27;20084;-72
2022/09/23 13:25:53;;;;;;;7.78;3.58;;;;;;;;;;5117381;27;20039;-72
2022/09/23 13:28:32;;;;;;;8.70;4.38;;;;;;;;;;5114049;28;20076;-72
2022/09/23 13:31:01;;;;;;;2.78;1.90;;;;;;;;;;5121489;27;20027;-72
2022/09/23 13:33:41;;;;;;;1.95;1.38;;;;;;;;;;5115628;27;20103;-71
2022/09/23 13:36:14;;;;;;;4.32;1.60;;;;;;;;;;5121097;27;20019;-71
2022/09/23 13:38:40;;;;;;;1.42;1.25;;;;;;;;;;5112359;27;20373;-72
2022/09/23 13:41:19;;;;;;;1.88;1.30;;;;;;;;;;5120273;27;20023;-72
2022/09/23 13:43:52;;;;;;;3.33;1.30;;;;;;;;;;5115216;27;20194;-73
2022/09/23 13:46:22;;;;;;;4.32;1.35;;;;;;;;;;5116012;27;20027;-72
2022/09/23 13:48:50;;;;;;;1.88;1.33;;;;;;;;;;5122122;27;20048;-72
2022/09/23 13:51:20;;;;;;;2.58;1.13;;;;;;;;;;5117616;27;20035;-72
2022/09/23 13:53:50;;;;;;;1.67;1.20;;;;;;;;;;5116025;27;20054;-72
2022/09/23 13:56:15;;;;;;;1.67;1.10;;;;;;;;;;5119711;27;20483;-72
2022/09/23 13:58:42;;;;;;;4.80;1.30;;;;;;;;;;5115109;27;20034;-73
2022/09/23 14:01:09;;;;;;;3.85;1.40;;;;;;;;;;5120974;27;20026;-73
2022/09/23 14:03:35;;;;;;;2.95;1.20;;;;;;;;;;5100917;27;20300;-72
2022/09/23 14:06:03;;;;;;;2.05;1.52;;;;;;;;;;5115900;27;20026;-71
2022/09/23 14:08:30;;;;;;;4.03;1.85;;;;;;;14.91;nan;100838.88;5104982;27;20038;-72
2022/09/23 14:10:57;;;;;;;1.80;1.40;;;;;;;;;;5111985;27;20046;-72
2022/09/23 14:13:27;;;;;;;2.22;1.55;;;;;;;;;;5123561;27;20032;-71
2022/09/23 14:15:53;;;;;;;2.60;1.83;;;;;;;;;;5115529;27;20034;-70
2022/09/23 14:18:28;;;;;;;2.78;2.03;;;;;;;;;;5120273;27;20106;-71
2022/09/23 14:20:53;;;;;;;2.80;2.10;;;;;;;;;;5117458;27;20484;-71
2022/09/23 14:23:18;;;;;;;4.63;2.50;;;;;;;;;;5118386;27;20040;-71
2022/09/23 14:25:44;;;;;;;19.03;7.00;;;;;;;;;;5118507;27;20015;-70
2022/09/23 14:28:20;;;;;;;10.55;5.07;;;;;;;;;;5110932;27;20028;-71
2022/09/23 14:30:47;;;;;;;6.15;4.13;;;;;;;;;;5119855;27;20147;-71
2022/09/23 14:33:23;;;;;;;5.47;3.63;;;;;;;;;;5119978;27;20031;-71
2022/09/23 14:35:51;;;;;;;8.63;4.40;;;;;;;;;;5119053;27;20027;-73
2022/09/23 14:41:23;;;;;;;7.00;4.47;;;;;;;14.99;nan;100882.75;5119049;27;20033;-72
2022/09/23 14:43:58;;;;;;;9.85;4.00;;;;;;;;;;5122118;27;20031;-72
2022/09/23 14:46:28;;;;;;;7.40;4.25;;;;;;;;;;5115213;27;20574;-73
2022/09/23 14:48:55;;;;;;;10.05;3.78;;;;;;;;;;5113910;27;20024;-70
2022/09/23 14:51:21;;;;;;;6.15;3.63;;;;;;;;;;5113826;27;20482;-70
2022/09/23 14:53:47;;;;;;;16.67;3.20;;;;;;;;;;5118874;27;20030;-70
2022/09/23 14:56:20;;;;;;;4.88;3.72;;;;;;;;;;5117834;27;20030;-70